createdAt,value
2022-09-28T00:01:10.239Z,14.32
2022-09-28T00:03:43.755Z,13.52
2022-09-28T00:06:12.400Z,14.25
2022-09-28T00:08:46.783Z,22.77
2022-09-28T00:11:15.556Z,12.75
2022-09-28T00:13:50.801Z,13.43
2022-09-28T00:16:19.632Z,15.57
2022-09-28T00:19:07.954Z,20.00
2022-09-28T00:21:37.036Z,21.95
2022-09-28T00:24:27.572Z,15.05
2022-09-28T00:26:56.252Z,18.75
2022-09-28T00:29:34.872Z,14.27
2022-09-28T00:32:03.424Z,17.52
2022-09-28T00:34:31.921Z,15.15
2022-09-28T00:37:06.768Z,19.55
2022-09-28T00:39:35.852Z,18.25
2022-09-28T00:42:09.883Z,17.80
2022-09-28T00:44:37.120Z,18.35
2022-09-28T00:47:19.846Z,17.10
2022-09-28T00:49:52.868Z,16.40
2022-09-28T00:52:28.862Z,16.30
2022-09-28T00:54:58.916Z,18.02
2022-09-28T00:57:33.892Z,18.58
2022-09-28T01:00:01.628Z,20.70
2022-09-28T01:02:28.784Z,21.60
2022-09-28T01:05:03.875Z,21.38
2022-09-28T01:07:32.431Z,18.63
2022-09-28T01:10:08.918Z,18.13
2022-09-28T01:12:36.232Z,22.27
2022-09-28T01:15:04.277Z,18.73
2022-09-28T01:17:44.803Z,20.52
2022-09-28T01:20:28.379Z,24.35
2022-09-28T01:23:04.871Z,22.23
2022-09-28T01:25:41.701Z,20.33
2022-09-28T01:28:25.815Z,25.73
2022-09-28T01:31:22.302Z,28.63
2022-09-28T01:34:01.792Z,23.70
2022-09-28T01:36:32.133Z,23.95
2022-09-28T01:39:08.798Z,22.23
2022-09-28T01:41:40.317Z,24.27
2022-09-28T01:44:16.833Z,25.83
2022-09-28T01:46:46.994Z,21.25
2022-09-28T01:49:23.799Z,21.02
2022-09-28T01:51:51.243Z,29.83
2022-09-28T01:54:35.820Z,22.27
2022-09-28T01:57:05.915Z,26.95
2022-09-28T01:59:40.792Z,19.10
2022-09-28T02:02:12.140Z,22.95
2022-09-28T02:04:48.799Z,27.60
2022-09-28T02:07:28.537Z,23.27
2022-09-28T02:10:05.025Z,25.83
2022-09-28T02:12:35.864Z,26.95
2022-09-28T02:15:16.813Z,26.38
2022-09-28T02:17:44.271Z,25.08
2022-09-28T02:20:24.862Z,30.77
2022-09-28T02:22:53.246Z,27.90
2022-09-28T02:25:32.911Z,25.60
2022-09-28T02:28:11.721Z,27.08
2022-09-28T02:30:39.895Z,25.92
2022-09-28T02:33:18.858Z,30.83
2022-09-28T02:35:46.736Z,33.50
2022-09-28T02:38:14.693Z,23.77
2022-09-28T02:40:50.969Z,28.85
2022-09-28T02:43:21.194Z,27.63
2022-09-28T02:45:58.883Z,27.85
2022-09-28T02:48:42.761Z,27.73
2022-09-28T02:51:19.870Z,27.85
2022-09-28T02:54:07.761Z,30.45
2022-09-28T02:56:41.854Z,28.15
2022-09-28T02:59:39.738Z,31.38
2022-09-28T03:02:10.062Z,30.25
2022-09-28T03:04:47.768Z,30.50
2022-09-28T03:07:18.079Z,33.88
2022-09-28T03:10:03.895Z,28.60
2022-09-28T03:12:31.645Z,28.55
2022-09-28T03:15:26.958Z,34.05
2022-09-28T03:17:54.261Z,26.85
2022-09-28T03:20:41.734Z,29.20
2022-09-28T03:23:25.439Z,28.88
2022-09-28T03:25:59.749Z,29.42
2022-09-28T03:28:28.344Z,29.17
2022-09-28T03:31:01.756Z,30.08
2022-09-28T03:33:28.872Z,29.40
2022-09-28T03:35:56.102Z,23.50
2022-09-28T03:38:30.749Z,28.63
2022-09-28T03:40:59.066Z,29.50
2022-09-28T03:43:33.890Z,28.10
2022-09-28T03:46:01.715Z,33.92
2022-09-28T03:48:32.654Z,27.17
2022-09-28T03:51:07.822Z,26.52
2022-09-28T03:53:35.136Z,26.33
2022-09-28T03:56:06.579Z,25.30
2022-09-28T03:58:39.838Z,25.48
2022-09-28T04:01:12.936Z,27.50
2022-09-28T04:03:49.892Z,24.40
2022-09-28T04:06:17.128Z,27.88
2022-09-28T04:08:44.230Z,23.23
2022-09-28T04:11:17.944Z,27.15
2022-09-28T04:13:48.298Z,25.98
2022-09-28T04:16:36.189Z,24.83
2022-09-28T04:19:09.870Z,27.30
2022-09-28T04:21:49.889Z,26.55
2022-09-28T04:24:17.155Z,25.55
2022-09-28T04:26:44.334Z,27.30
2022-09-28T04:29:23.973Z,27.15
2022-09-28T04:31:52.468Z,25.23
2022-09-28T04:34:20.991Z,22.75
2022-09-28T04:36:54.959Z,22.38
2022-09-28T04:39:22.219Z,27.13
2022-09-28T04:41:55.868Z,21.45
2022-09-28T04:44:22.989Z,27.48
2022-09-28T04:46:50.170Z,24.77
2022-09-28T04:49:24.054Z,24.38
2022-09-28T04:51:51.338Z,26.00
2022-09-28T04:54:18.453Z,25.58
2022-09-28T04:56:51.942Z,28.27
2022-09-28T04:59:19.118Z,28.15
2022-09-28T05:01:54.098Z,29.27
2022-09-28T05:04:25.845Z,33.92
2022-09-28T05:06:53.327Z,25.92
2022-09-28T05:09:26.896Z,30.88
2022-09-28T05:11:54.121Z,28.20
2022-09-28T05:14:31.000Z,26.55
2022-09-28T05:16:58.405Z,27.33
2022-09-28T05:19:38.931Z,26.77
2022-09-28T05:22:08.411Z,27.95
2022-09-28T05:24:35.664Z,28.90
2022-09-28T05:27:08.916Z,32.05
2022-09-28T05:29:36.149Z,30.05
2022-09-28T05:32:10.060Z,26.10
2022-09-28T05:34:37.328Z,27.85
2022-09-28T05:37:04.458Z,26.58
2022-09-28T05:39:37.951Z,28.55
2022-09-28T05:42:05.205Z,28.83
2022-09-28T05:44:38.943Z,32.42
2022-09-28T05:47:06.121Z,27.77
2022-09-28T05:49:33.468Z,29.75
2022-09-28T05:52:06.869Z,27.85
2022-09-28T05:54:34.010Z,30.13
2022-09-28T05:57:08.055Z,33.33
2022-09-28T05:59:36.104Z,34.67
2022-09-28T06:02:03.596Z,34.80
2022-09-28T06:04:37.917Z,34.17
2022-09-28T06:07:05.200Z,30.83
2022-09-28T06:09:45.275Z,27.80
2022-09-28T06:12:12.460Z,31.48
2022-09-28T06:14:39.688Z,33.35
2022-09-28T06:17:12.979Z,27.88
2022-09-28T06:19:47.423Z,28.40
2022-09-28T06:22:27.029Z,28.55
2022-09-28T06:24:54.205Z,33.72
2022-09-28T06:27:21.456Z,29.38
2022-09-28T06:29:54.860Z,31.23
2022-09-28T06:32:21.981Z,28.88
2022-09-28T06:34:56.560Z,31.42
2022-09-28T06:37:29.868Z,28.13
2022-09-28T06:40:04.042Z,27.80
2022-09-28T06:42:31.191Z,25.20
2022-09-28T06:44:59.189Z,26.20
2022-09-28T06:47:32.985Z,30.63
2022-09-28T06:50:00.556Z,24.75
2022-09-28T06:55:01.190Z,20.95
2022-09-28T06:57:28.296Z,22.73
2022-09-28T07:00:01.884Z,23.13
2022-09-28T07:02:29.122Z,24.48
2022-09-28T07:05:03.175Z,21.77
2022-09-28T07:07:31.352Z,20.98
2022-09-28T07:09:58.458Z,24.42
2022-09-28T07:12:33.004Z,22.88
2022-09-28T07:15:00.213Z,20.25
2022-09-28T07:17:36.989Z,19.35
2022-09-28T07:20:18.931Z,18.92
2022-09-28T07:22:55.111Z,20.88
2022-09-28T07:25:23.023Z,20.00
2022-09-28T07:27:50.228Z,15.40
2022-09-28T07:30:23.946Z,18.10
2022-09-28T07:32:51.697Z,20.52
2022-09-28T07:35:25.193Z,19.13
2022-09-28T07:38:03.407Z,15.70
2022-09-28T07:43:23.405Z,15.10
2022-09-28T07:45:52.499Z,17.63
2022-09-28T07:48:25.913Z,17.48
2022-09-28T07:50:55.063Z,13.68
2022-09-28T07:53:30.092Z,15.27
2022-09-28T07:56:17.003Z,15.57
2022-09-28T07:58:44.344Z,13.93
2022-09-28T08:01:14.880Z,11.68
2022-09-28T08:03:51.963Z,12.48
2022-09-28T08:06:19.629Z,14.80
2022-09-28T08:08:46.736Z,15.60
2022-09-28T08:11:21.959Z,16.15
2022-09-28T08:13:49.266Z,14.55
2022-09-28T08:16:23.278Z,15.77
2022-09-28T08:18:56.960Z,17.77
2022-09-28T08:21:52.997Z,11.27
2022-09-28T08:24:20.779Z,12.40
2022-09-28T08:26:48.418Z,16.05
2022-09-28T08:31:50.398Z,13.77
2022-09-28T08:34:24.152Z,14.02
2022-09-28T08:36:51.345Z,20.27
2022-09-28T08:39:18.430Z,14.98
2022-09-28T08:42:06.990Z,10.20
2022-09-28T08:44:40.047Z,14.48
2022-09-28T08:47:14.972Z,9.38
2022-09-28T08:49:45.097Z,9.65
2022-09-28T08:52:22.948Z,9.73
2022-09-28T08:54:53.053Z,13.52
2022-09-28T08:57:28.959Z,8.70
2022-09-28T08:59:57.287Z,8.57
2022-09-28T09:02:34.015Z,13.55
2022-09-28T09:05:02.574Z,9.32
2022-09-28T09:07:35.980Z,10.55
2022-09-28T09:10:09.398Z,9.88
2022-09-28T09:12:50.973Z,13.93
2022-09-28T09:15:22.302Z,10.38
2022-09-28T09:18:19.765Z,11.68
2022-09-28T09:21:02.309Z,13.45
2022-09-28T09:24:05.990Z,19.00
2022-09-28T09:26:39.141Z,13.15
2022-09-28T09:29:12.991Z,10.48
2022-09-28T09:31:59.616Z,9.05
2022-09-28T09:34:39.984Z,8.50
2022-09-28T09:37:29.015Z,13.55
2022-09-28T09:40:10.980Z,7.55
2022-09-28T09:42:41.021Z,12.63
2022-09-28T09:45:16.173Z,10.68
2022-09-28T09:47:45.607Z,8.13
2022-09-28T09:50:35.954Z,9.38
2022-09-28T09:53:15.462Z,13.85
2022-09-28T09:55:54.148Z,9.40
2022-09-28T09:58:24.706Z,9.32
2022-09-28T10:01:00.038Z,11.90
2022-09-28T10:03:31.303Z,13.23
2022-09-28T10:06:11.002Z,14.50
2022-09-28T10:08:50.357Z,8.43
2022-09-28T10:11:26.069Z,9.05
2022-09-28T10:13:53.149Z,9.68
2022-09-28T10:16:26.999Z,8.25
2022-09-28T10:18:54.139Z,11.43
2022-09-28T10:21:35.984Z,11.38
2022-09-28T10:24:03.085Z,7.22
2022-09-28T10:26:34.451Z,9.82
2022-09-28T10:29:11.007Z,8.32
2022-09-28T10:31:38.384Z,11.02
2022-09-28T10:34:14.106Z,9.15
2022-09-28T10:37:01.582Z,8.88
2022-09-28T10:39:35.964Z,10.43
2022-09-28T10:42:04.361Z,10.90
2022-09-28T10:44:41.982Z,10.40
2022-09-28T10:47:14.197Z,10.48
2022-09-28T10:49:49.964Z,9.98
2022-09-28T10:52:45.147Z,8.25
2022-09-28T10:55:37.036Z,11.48
2022-09-28T10:58:24.118Z,8.00
2022-09-28T11:00:59.199Z,8.52
2022-09-28T11:03:27.941Z,9.05
2022-09-28T11:05:56.090Z,9.48
2022-09-28T11:08:33.128Z,8.30
2022-09-28T11:11:04.776Z,10.70
2022-09-28T11:13:40.238Z,9.85
2022-09-28T11:16:07.505Z,6.95
2022-09-28T11:18:34.741Z,8.65
2022-09-28T11:21:15.994Z,7.30
2022-09-28T11:24:02.126Z,6.63
2022-09-28T11:26:35.173Z,9.60
2022-09-28T11:29:10.922Z,8.50
2022-09-28T11:31:39.868Z,9.40
2022-09-28T11:34:47.750Z,7.95
2022-09-28T11:37:22.099Z,10.90
2022-09-28T11:40:05.019Z,7.65
2022-09-28T11:42:32.588Z,9.05
2022-09-28T11:45:17.081Z,7.40
2022-09-28T11:47:47.927Z,7.28
2022-09-28T11:50:17.034Z,8.38
2022-09-28T11:53:05.022Z,7.00
2022-09-28T11:55:54.931Z,9.10
2022-09-28T11:58:38.023Z,8.57
2022-09-28T12:01:18.697Z,7.32
2022-09-28T12:03:49.215Z,8.02
2022-09-28T12:06:25.941Z,7.50
2022-09-28T12:08:58.346Z,6.68
2022-09-28T12:11:38.961Z,9.57
2022-09-28T12:14:11.221Z,6.32
2022-09-28T12:17:07.290Z,7.13
2022-09-28T12:19:44.996Z,6.95
2022-09-28T12:22:30.929Z,6.35
2022-09-28T12:24:58.832Z,8.50
2022-09-28T12:27:40.054Z,6.22
2022-09-28T12:30:10.575Z,9.40
2022-09-28T12:32:47.008Z,10.63
2022-09-28T12:35:16.160Z,5.45
2022-09-28T12:37:46.200Z,11.00
2022-09-28T12:40:26.242Z,8.25
2022-09-28T12:43:06.895Z,5.50
2022-09-28T12:46:07.092Z,7.80
2022-09-28T12:48:37.157Z,8.15
2022-09-28T12:51:14.362Z,11.63
2022-09-28T12:54:01.887Z,8.13
2022-09-28T12:56:54.222Z,8.20
2022-09-28T12:59:39.077Z,7.57
2022-09-28T13:02:32.197Z,10.50
2022-09-28T13:05:05.838Z,9.98
2022-09-28T13:07:40.078Z,7.47
2022-09-28T13:10:07.267Z,9.32
2022-09-28T13:12:34.344Z,8.48
2022-09-28T13:15:15.116Z,6.38
2022-09-28T13:17:51.970Z,7.57
2022-09-28T13:20:38.046Z,7.70
2022-09-28T13:23:39.947Z,8.45
2022-09-28T13:26:28.389Z,11.43
2022-09-28T13:29:05.144Z,8.35
2022-09-28T13:31:35.954Z,8.13
2022-09-28T13:34:12.092Z,5.53
2022-09-28T13:36:40.981Z,6.47
2022-09-28T13:39:35.951Z,12.75
2022-09-28T13:42:03.175Z,9.68
2022-09-28T13:44:33.428Z,7.05
2022-09-28T13:47:21.100Z,6.35
2022-09-28T13:49:48.435Z,8.27
2022-09-28T13:52:41.370Z,7.20
2022-09-28T13:55:27.322Z,8.05
2022-09-28T13:58:08.322Z,6.97
2022-09-28T14:00:37.037Z,7.18
2022-09-28T14:03:04.419Z,8.48
2022-09-28T14:05:48.105Z,6.55
2022-09-28T14:08:28.167Z,7.82
2022-09-28T14:11:03.139Z,7.53
2022-09-28T14:13:42.559Z,6.35
2022-09-28T14:16:25.135Z,9.77
2022-09-28T14:18:56.590Z,5.75
2022-09-28T14:21:43.170Z,16.27
2022-09-28T14:24:10.318Z,8.00
2022-09-28T14:27:07.165Z,8.50
2022-09-28T14:29:36.188Z,4.43
2022-09-28T14:32:06.442Z,4.07
2022-09-28T14:34:49.065Z,5.65
2022-09-28T14:37:45.936Z,7.25
2022-09-28T14:40:47.147Z,4.95
2022-09-28T14:43:35.017Z,4.22
2022-09-28T14:46:11.864Z,4.07
2022-09-28T14:48:49.996Z,7.82
2022-09-28T14:51:26.492Z,4.55
2022-09-28T14:54:18.106Z,4.00
2022-09-28T14:57:11.594Z,5.60
2022-09-28T14:59:50.117Z,9.05
2022-09-28T15:02:25.631Z,4.90
2022-09-28T15:05:01.056Z,9.30
2022-09-28T15:07:43.531Z,5.40
2022-09-28T15:10:30.001Z,5.28
2022-09-28T15:12:58.056Z,11.27
2022-09-28T15:15:38.058Z,5.93
2022-09-28T15:18:14.050Z,6.82
2022-09-28T15:20:57.022Z,6.57
2022-09-28T15:23:40.321Z,4.82
2022-09-28T15:26:15.166Z,11.35
2022-09-28T15:28:45.298Z,4.18
2022-09-28T15:31:25.197Z,9.02
2022-09-28T15:34:11.637Z,4.53
2022-09-28T15:36:49.019Z,3.72
2022-09-28T15:39:18.431Z,4.77
2022-09-28T15:41:46.888Z,4.70
2022-09-28T15:44:21.090Z,7.13
2022-09-28T15:46:48.669Z,8.13
2022-09-28T15:51:53.296Z,4.47
2022-09-28T15:54:31.086Z,5.45
2022-09-28T15:56:59.586Z,6.20
2022-09-28T15:59:41.159Z,5.78
2022-09-28T16:02:11.515Z,6.00
2022-09-28T16:04:51.107Z,5.28
2022-09-28T16:07:25.963Z,4.30
2022-09-28T16:10:02.230Z,6.70
2022-09-28T16:12:41.210Z,7.20
2022-09-28T16:15:18.390Z,5.40
2022-09-28T16:17:50.356Z,5.88
2022-09-28T16:20:42.123Z,8.15
2022-09-28T16:23:09.423Z,4.10
2022-09-28T16:25:39.029Z,6.50
2022-09-28T16:28:14.169Z,5.80
2022-09-28T16:31:06.099Z,5.40
2022-09-28T16:33:41.573Z,6.43
2022-09-28T16:36:19.029Z,3.20
2022-09-28T16:38:46.487Z,3.05
2022-09-28T16:41:21.176Z,6.68
2022-09-28T16:43:48.478Z,4.18
2022-09-28T16:46:17.684Z,4.13
2022-09-28T16:48:55.120Z,7.95
2022-09-28T16:51:29.120Z,2.33
2022-09-28T16:54:25.083Z,3.38
2022-09-28T16:56:52.264Z,5.45
2022-09-28T16:59:26.036Z,12.70
2022-09-28T17:01:54.234Z,4.35
2022-09-28T17:04:23.224Z,2.55
2022-09-28T17:07:00.216Z,4.45
2022-09-28T17:09:27.425Z,3.17
2022-09-28T17:12:03.246Z,3.90
2022-09-28T17:14:32.771Z,4.68
2022-09-28T17:17:16.964Z,3.55
2022-09-28T17:19:44.419Z,2.58
2022-09-28T17:22:25.096Z,3.35
2022-09-28T17:24:59.023Z,7.22
2022-09-28T17:27:26.218Z,3.72
2022-09-28T17:30:00.083Z,3.25
2022-09-28T17:32:27.271Z,4.53
2022-09-28T17:35:06.522Z,3.40
2022-09-28T17:37:48.731Z,5.00
2022-09-28T17:40:18.909Z,3.58
2022-09-28T17:42:54.366Z,2.70
2022-09-28T17:45:21.662Z,11.60
2022-09-28T17:47:48.772Z,4.00
2022-09-28T17:50:36.210Z,4.53
2022-09-28T17:53:06.111Z,5.88
2022-09-28T17:55:41.219Z,5.03
2022-09-28T17:58:26.367Z,7.72
2022-09-28T18:01:00.228Z,4.45
2022-09-28T18:03:27.336Z,3.90
2022-09-28T18:06:10.206Z,10.27
2022-09-28T18:08:37.540Z,7.18
2022-09-28T18:11:05.262Z,3.75
2022-09-28T18:16:06.476Z,5.45
2022-09-28T18:18:43.173Z,2.95
2022-09-28T18:21:17.111Z,4.05
2022-09-28T18:23:58.357Z,3.10
2022-09-28T18:26:25.583Z,4.90
2022-09-28T18:28:55.166Z,3.42
2022-09-28T18:31:29.321Z,2.90
2022-09-28T18:34:02.621Z,5.03
2022-09-28T18:36:37.397Z,3.60
2022-09-28T18:39:04.724Z,4.13
2022-09-28T18:41:31.820Z,4.13
2022-09-28T18:44:09.143Z,5.40
2022-09-28T18:46:36.684Z,3.33
2022-09-28T18:51:37.730Z,5.28
2022-09-28T18:54:07.103Z,4.13
2022-09-28T18:56:44.634Z,6.05
2022-09-28T18:59:12.546Z,3.47
2022-09-28T19:01:41.548Z,7.13
2022-09-28T19:04:16.120Z,7.30
2022-09-28T19:06:44.843Z,7.88
2022-09-28T19:09:19.234Z,6.00
2022-09-28T19:11:46.495Z,9.38
2022-09-28T19:14:22.284Z,7.32
2022-09-28T19:16:49.760Z,4.13
2022-09-28T19:19:17.887Z,4.93
2022-09-28T19:21:52.329Z,7.25
2022-09-28T19:24:19.751Z,5.18
2022-09-28T19:26:46.922Z,7.57
2022-09-28T19:29:21.384Z,4.30
2022-09-28T19:31:49.701Z,7.07
2022-09-28T19:34:17.087Z,6.90
2022-09-28T19:36:51.152Z,8.73
2022-09-28T19:39:18.408Z,9.05
2022-09-28T19:41:56.154Z,6.57
2022-09-28T19:44:27.629Z,8.60
2022-09-28T19:47:16.341Z,4.75
2022-09-28T19:49:43.561Z,6.03
2022-09-28T19:52:15.909Z,4.45
2022-09-28T19:54:55.314Z,12.80
2022-09-28T19:57:24.629Z,7.25
2022-09-28T19:59:53.821Z,3.38
2022-09-28T20:02:30.294Z,6.97
2022-09-28T20:04:57.674Z,4.07
2022-09-28T20:07:31.065Z,7.88
2022-09-28T20:09:58.528Z,3.92
2022-09-28T20:12:32.122Z,3.17
2022-09-28T20:14:59.456Z,3.85
2022-09-28T20:17:27.612Z,7.47
2022-09-28T20:20:01.222Z,5.18
2022-09-28T20:22:35.134Z,5.97
2022-09-28T20:25:10.182Z,5.00
2022-09-28T20:27:39.277Z,3.08
2022-09-28T20:30:07.164Z,4.15
2022-09-28T20:32:45.092Z,3.55
2022-09-28T20:35:30.037Z,4.63
2022-09-28T20:38:14.197Z,6.70
2022-09-28T20:40:41.981Z,4.85
2022-09-28T20:43:09.644Z,4.10
2022-09-28T20:48:13.398Z,4.97
2022-09-28T20:50:41.263Z,4.18
2022-09-28T20:53:15.357Z,3.95
2022-09-28T20:55:42.615Z,8.02
2022-09-28T20:58:09.714Z,9.63
2022-09-28T21:00:43.268Z,3.88
2022-09-28T21:03:10.572Z,5.35
2022-09-28T21:05:37.729Z,5.80
2022-09-28T21:08:11.168Z,8.38
2022-09-28T21:10:38.323Z,5.75
2022-09-28T21:13:12.404Z,11.90
2022-09-28T21:15:39.704Z,6.03
2022-09-28T21:18:06.846Z,7.75
2022-09-28T21:20:40.165Z,7.18
2022-09-28T21:23:14.728Z,7.22
2022-09-28T21:25:48.227Z,5.30
2022-09-28T21:28:18.593Z,5.43
2022-09-28T21:30:46.190Z,4.82
2022-09-28T21:35:47.775Z,2.92
2022-09-28T21:38:15.046Z,4.57
2022-09-28T21:40:49.352Z,5.10
2022-09-28T21:43:17.129Z,8.77
2022-09-28T21:45:51.408Z,4.03
2022-09-28T21:48:19.041Z,5.10
2022-09-28T21:53:20.290Z,6.22
2022-09-28T21:55:52.354Z,5.13
2022-09-28T21:58:33.248Z,17.27
2022-09-28T22:01:01.527Z,2.67
2022-09-28T22:03:29.445Z,2.80
2022-09-28T22:06:03.214Z,6.32
2022-09-28T22:08:30.495Z,8.10
2022-09-28T22:11:07.237Z,2.95
2022-09-28T22:13:35.472Z,3.35
2022-09-28T22:16:02.853Z,3.88
2022-09-28T22:18:37.233Z,2.67
2022-09-28T22:21:16.196Z,5.85
2022-09-28T22:23:57.411Z,2.80
2022-09-28T22:26:25.974Z,3.53
2022-09-28T22:29:01.225Z,5.80
2022-09-28T22:31:30.146Z,3.08
2022-09-28T22:34:04.397Z,3.88
2022-09-28T22:36:31.676Z,3.42
2022-09-28T22:38:59.541Z,2.28
2022-09-28T22:41:33.267Z,4.55
2022-09-28T22:44:00.490Z,5.75
2022-09-28T22:46:35.365Z,2.75
2022-09-28T22:49:02.924Z,2.53
2022-09-28T22:51:38.421Z,4.20
2022-09-28T22:54:05.840Z,7.30
2022-09-28T22:56:32.972Z,4.68
2022-09-28T22:59:07.423Z,2.85
2022-09-28T23:01:34.891Z,2.17
2022-09-28T23:04:02.186Z,5.28
2022-09-28T23:06:37.263Z,4.05
2022-09-28T23:09:04.494Z,5.05
2022-09-28T23:11:38.318Z,6.85
2022-09-28T23:14:05.705Z,8.60
2022-09-28T23:16:32.834Z,4.43
2022-09-28T23:19:06.415Z,4.00
2022-09-28T23:21:40.370Z,8.52
2022-09-28T23:24:21.308Z,4.30
2022-09-28T23:26:48.413Z,7.03
2022-09-28T23:29:15.604Z,4.10
2022-09-28T23:31:49.202Z,5.35
2022-09-28T23:34:16.392Z,4.00
2022-09-28T23:36:50.221Z,6.30
2022-09-28T23:39:17.499Z,5.95
2022-09-28T23:41:44.607Z,7.78
2022-09-28T23:44:18.232Z,4.47
2022-09-28T23:46:45.653Z,4.43
2022-09-28T23:49:19.402Z,3.10
2022-09-28T23:51:46.625Z,5.15
2022-09-28T23:54:13.713Z,5.07
2022-09-28T23:56:47.226Z,5.00
2022-09-28T23:59:14.517Z,4.20
